createdAt,value
2023-09-17T00:00:35.375Z,71.76
2023-09-17T00:03:22.829Z,70.99
2023-09-17T00:05:55.498Z,71.24
2023-09-17T00:08:28.181Z,70.45
2023-09-17T00:10:56.171Z,70.19
2023-09-17T00:13:23.943Z,71.24
2023-09-17T00:16:00.743Z,75.91
2023-09-17T00:18:33.368Z,76.33
2023-09-17T00:21:01.252Z,73.40
2023-09-17T00:23:33.322Z,72.78
2023-09-17T00:26:05.978Z,71.22
2023-09-17T00:28:33.302Z,71.21
2023-09-17T00:31:26.552Z,71.76
2023-09-17T00:33:54.080Z,73.78
2023-09-17T00:36:30.970Z,75.46
2023-09-17T00:39:02.584Z,74.79
2023-09-17T00:41:34.917Z,74.39
2023-09-17T00:44:02.378Z,72.63
2023-09-17T00:46:32.957Z,71.53
2023-09-17T00:49:05.447Z,71.15
2023-09-17T00:51:33.276Z,72.71
2023-09-17T00:54:00.795Z,74.10
2023-09-17T00:56:33.241Z,73.57
2023-09-17T00:59:00.991Z,70.70
2023-09-17T01:01:30.747Z,71.00
2023-09-17T01:04:00.866Z,72.11
2023-09-17T01:06:29.288Z,74.66
2023-09-17T01:08:57.510Z,73.91
2023-09-17T01:11:26.471Z,72.73
2023-09-17T01:13:54.678Z,72.41
2023-09-17T01:16:27.172Z,71.60
2023-09-17T01:19:12.188Z,71.23
2023-09-17T01:21:57.403Z,71.43
2023-09-17T01:24:29.691Z,72.19
2023-09-17T01:27:03.521Z,74.53
2023-09-17T01:29:35.997Z,74.57
2023-09-17T01:32:04.085Z,73.83
2023-09-17T01:34:32.239Z,71.72
2023-09-17T01:37:03.840Z,71.62
2023-09-17T01:39:42.361Z,73.10
2023-09-17T01:42:16.222Z,71.83
2023-09-17T01:44:46.124Z,71.83
2023-09-17T01:47:14.760Z,73.80
2023-09-17T01:49:43.176Z,73.77
2023-09-17T01:52:12.339Z,74.77
2023-09-17T01:54:40.039Z,75.97
2023-09-17T01:57:07.692Z,76.28
2023-09-17T01:59:36.606Z,76.96
2023-09-17T02:02:04.716Z,76.75
2023-09-17T02:04:32.232Z,77.13
2023-09-17T02:07:00.208Z,77.03
2023-09-17T02:09:27.634Z,77.37
2023-09-17T02:11:55.464Z,78.32
2023-09-17T02:14:22.812Z,77.18
2023-09-17T02:16:55.967Z,76.51
2023-09-17T02:19:23.504Z,75.66
2023-09-17T02:21:51.369Z,75.27
2023-09-17T02:24:18.979Z,74.31
2023-09-17T02:26:46.817Z,73.94
2023-09-17T02:29:14.407Z,74.24
2023-09-17T02:31:42.153Z,74.88
2023-09-17T02:34:11.000Z,75.88
2023-09-17T02:36:38.900Z,75.05
2023-09-17T02:39:10.877Z,73.09
2023-09-17T02:41:38.710Z,74.84
2023-09-17T02:44:06.266Z,74.72
2023-09-17T02:46:36.445Z,73.67
2023-09-17T02:49:03.979Z,73.06
2023-09-17T02:51:37.091Z,71.90
2023-09-17T02:54:10.451Z,71.65
2023-09-17T02:56:39.700Z,70.86
2023-09-17T02:59:11.645Z,70.92
2023-09-17T03:01:44.027Z,70.93
2023-09-17T03:07:12.613Z,72.06
2023-09-17T03:09:49.400Z,72.72
2023-09-17T03:12:17.281Z,73.92
2023-09-17T03:14:44.691Z,74.66
2023-09-17T03:17:12.561Z,74.53
2023-09-17T03:19:40.065Z,73.11
2023-09-17T03:22:24.545Z,74.42
2023-09-17T03:25:03.224Z,75.97
2023-09-17T03:27:37.494Z,77.13
2023-09-17T03:30:05.856Z,77.20
2023-09-17T03:33:01.923Z,76.74
2023-09-17T03:35:32.190Z,76.07
2023-09-17T03:38:10.597Z,75.72
2023-09-17T03:40:42.491Z,76.14
2023-09-17T03:43:10.610Z,75.21
2023-09-17T03:45:38.217Z,75.70
2023-09-17T03:48:07.092Z,75.74
2023-09-17T03:50:35.314Z,74.46
2023-09-17T03:53:04.122Z,74.99
2023-09-17T03:55:37.257Z,73.99
2023-09-17T03:58:05.406Z,74.73
2023-09-17T04:00:32.900Z,76.25
2023-09-17T04:03:00.739Z,76.34
2023-09-17T04:05:28.196Z,77.20
2023-09-17T04:07:56.083Z,76.99
2023-09-17T04:10:23.602Z,79.16
2023-09-17T04:12:53.013Z,78.63
2023-09-17T04:15:20.497Z,79.31
2023-09-17T04:17:49.787Z,78.35
2023-09-17T04:20:17.705Z,77.99
2023-09-17T04:22:46.268Z,75.51
2023-09-17T04:25:14.449Z,75.65
2023-09-17T04:27:43.231Z,74.77
2023-09-17T04:30:17.193Z,75.61
2023-09-17T04:32:46.859Z,75.87
2023-09-17T04:35:15.582Z,76.53
2023-09-17T04:37:43.453Z,76.58
2023-09-17T04:40:11.436Z,76.73
2023-09-17T04:42:41.048Z,75.70
2023-09-17T04:45:10.885Z,75.12
2023-09-17T04:47:44.009Z,74.53
2023-09-17T04:50:11.824Z,75.78
2023-09-17T04:52:39.655Z,77.40
2023-09-17T04:55:07.675Z,77.64
2023-09-17T04:57:35.489Z,76.74
2023-09-17T05:00:09.400Z,75.76
2023-09-17T05:02:42.425Z,75.72
2023-09-17T05:05:21.704Z,74.59
2023-09-17T05:07:56.457Z,74.41
2023-09-17T05:10:24.243Z,74.78
2023-09-17T05:12:56.432Z,74.96
2023-09-17T05:15:30.406Z,74.98
2023-09-17T05:18:03.424Z,76.14
2023-09-17T05:20:37.361Z,77.52
2023-09-17T05:23:12.382Z,76.91
2023-09-17T05:25:44.481Z,77.45
2023-09-17T05:28:12.552Z,77.34
2023-09-17T05:30:41.124Z,75.31
2023-09-17T05:33:13.416Z,75.46
2023-09-17T05:35:46.043Z,73.97
2023-09-17T05:38:14.018Z,74.55
2023-09-17T05:40:41.482Z,75.89
2023-09-17T05:43:09.418Z,73.52
2023-09-17T05:45:37.079Z,73.30
2023-09-17T05:48:06.003Z,73.47
2023-09-17T05:50:33.766Z,74.12
2023-09-17T05:53:13.595Z,72.97
2023-09-17T05:55:51.442Z,73.69
2023-09-17T05:58:19.580Z,71.79
2023-09-17T06:00:49.829Z,72.42
2023-09-17T06:03:20.895Z,72.02
2023-09-17T06:05:48.758Z,73.21
2023-09-17T06:08:30.884Z,73.08
2023-09-17T06:10:58.422Z,73.00
2023-09-17T06:13:30.404Z,73.78
2023-09-17T06:15:59.799Z,74.74
2023-09-17T06:18:27.607Z,74.92
2023-09-17T06:20:55.262Z,74.44
2023-09-17T06:23:23.145Z,75.46
2023-09-17T06:25:51.951Z,75.69
2023-09-17T06:28:19.998Z,74.72
2023-09-17T06:30:47.584Z,75.10
2023-09-17T06:33:15.598Z,74.70
2023-09-17T06:35:43.081Z,75.94
2023-09-17T06:38:10.772Z,74.98
2023-09-17T06:40:38.337Z,72.54
2023-09-17T06:43:07.783Z,73.33
2023-09-17T06:45:35.228Z,72.92
2023-09-17T06:48:08.052Z,73.54
2023-09-17T06:50:35.569Z,73.39
2023-09-17T06:53:03.812Z,72.49
2023-09-17T06:55:31.318Z,71.47
2023-09-17T06:57:59.098Z,71.03
2023-09-17T07:00:31.906Z,72.24
2023-09-17T07:02:59.742Z,69.83
2023-09-17T07:05:27.224Z,70.46
2023-09-17T07:07:55.214Z,70.86
2023-09-17T07:10:22.778Z,70.63
2023-09-17T07:12:52.227Z,67.73
2023-09-17T07:15:19.789Z,69.38
2023-09-17T07:17:48.991Z,66.61
2023-09-17T07:20:16.381Z,67.24
2023-09-17T07:22:45.068Z,66.46
2023-09-17T07:25:20.503Z,68.77
2023-09-17T07:28:14.595Z,66.71
2023-09-17T07:30:57.597Z,66.03
2023-09-17T07:33:35.072Z,65.82
2023-09-17T07:36:11.698Z,66.65
2023-09-17T07:39:10.121Z,65.35
2023-09-17T07:41:52.739Z,65.41
2023-09-17T07:44:42.400Z,64.40
2023-09-17T07:47:34.893Z,62.44
2023-09-17T07:50:36.659Z,64.26
2023-09-17T07:53:14.638Z,63.16
2023-09-17T07:56:21.520Z,63.48
2023-09-17T07:58:59.142Z,63.90
2023-09-17T08:04:36.261Z,62.84
2023-09-17T08:07:31.746Z,60.44
2023-09-17T08:10:17.540Z,61.19
2023-09-17T08:13:03.501Z,61.25
2023-09-17T08:15:37.672Z,62.08
2023-09-17T08:20:58.694Z,61.75
2023-09-17T08:29:48.618Z,59.46
2023-09-17T08:32:25.770Z,59.42
2023-09-17T08:34:58.131Z,61.44
2023-09-17T08:37:30.765Z,57.68
2023-09-17T08:39:58.318Z,55.13
2023-09-17T08:42:26.612Z,54.80
2023-09-17T08:45:01.903Z,54.79
2023-09-17T08:47:30.028Z,55.16
2023-09-17T08:50:02.452Z,54.11
2023-09-17T08:52:34.785Z,55.36
2023-09-17T08:55:06.929Z,55.32
2023-09-17T08:57:40.924Z,54.59
2023-09-17T09:00:22.703Z,52.31
2023-09-17T09:02:57.363Z,54.55
2023-09-17T09:05:31.560Z,54.30
2023-09-17T09:08:00.072Z,53.42
2023-09-17T09:10:27.625Z,54.41
2023-09-17T09:12:56.645Z,51.79
2023-09-17T09:15:33.148Z,53.09
2023-09-17T09:18:06.398Z,50.68
2023-09-17T09:20:36.711Z,50.09
2023-09-17T09:23:05.299Z,50.08
2023-09-17T09:25:33.104Z,49.33
2023-09-17T09:28:01.175Z,50.71
2023-09-17T09:30:41.441Z,49.23
2023-09-17T09:33:09.687Z,48.30
2023-09-17T09:35:42.405Z,48.81
2023-09-17T09:38:12.277Z,47.52
2023-09-17T09:40:40.248Z,47.44
2023-09-17T09:43:31.595Z,47.55
2023-09-17T09:46:21.412Z,49.25
2023-09-17T09:49:00.458Z,47.34
2023-09-17T09:51:33.328Z,47.93
2023-09-17T09:54:07.302Z,48.95
2023-09-17T09:56:35.118Z,46.32
2023-09-17T09:59:03.155Z,48.53
2023-09-17T10:01:39.363Z,46.74
2023-09-17T10:04:17.438Z,46.73
2023-09-17T10:06:47.216Z,45.75
2023-09-17T10:09:17.325Z,48.62
2023-09-17T10:11:44.887Z,45.21
2023-09-17T10:14:17.424Z,45.13
2023-09-17T10:16:56.977Z,43.37
2023-09-17T10:19:26.654Z,45.74
2023-09-17T10:21:54.886Z,48.14
2023-09-17T10:24:24.457Z,48.33
2023-09-17T10:26:57.111Z,46.65
2023-09-17T10:29:29.679Z,46.23
2023-09-17T10:31:59.834Z,45.08
2023-09-17T10:34:29.299Z,45.39
2023-09-17T10:37:01.460Z,43.79
2023-09-17T10:39:42.501Z,43.54
2023-09-17T10:42:15.508Z,44.28
2023-09-17T10:44:50.536Z,44.72
2023-09-17T10:47:26.469Z,44.57
2023-09-17T10:49:56.182Z,45.32
2023-09-17T10:52:24.110Z,44.12
2023-09-17T10:54:56.215Z,42.95
2023-09-17T10:57:43.408Z,43.82
2023-09-17T11:00:18.654Z,44.38
2023-09-17T11:02:55.849Z,44.04
2023-09-17T11:05:33.442Z,42.96
2023-09-17T11:08:04.747Z,42.79
2023-09-17T11:10:42.530Z,44.09
2023-09-17T11:16:07.373Z,42.21
2023-09-17T11:19:26.510Z,42.93
2023-09-17T11:25:07.435Z,41.82
2023-09-17T11:28:02.414Z,41.55
2023-09-17T11:34:01.458Z,41.50
2023-09-17T11:42:57.922Z,40.68
2023-09-17T11:48:16.534Z,39.89
2023-09-17T13:00:54.634Z,33.71
2023-09-17T15:05:29.418Z,35.13
2023-09-17T15:08:02.549Z,35.41
2023-09-17T15:10:35.391Z,34.70
2023-09-17T15:13:17.314Z,35.97
2023-09-17T15:15:49.759Z,36.51
2023-09-17T15:18:18.325Z,35.23
2023-09-17T15:20:59.123Z,36.42
2023-09-17T15:23:31.533Z,36.24
2023-09-17T15:26:00.527Z,35.21
2023-09-17T15:28:28.790Z,35.45
2023-09-17T15:31:01.397Z,38.01
2023-09-17T15:33:29.862Z,37.55
2023-09-17T15:36:09.319Z,36.65
2023-09-17T15:38:51.638Z,36.82
2023-09-17T15:41:28.172Z,38.09
2023-09-17T15:44:13.010Z,36.99
2023-09-17T15:46:50.581Z,38.16
2023-09-17T15:49:32.563Z,38.41
2023-09-17T15:52:10.082Z,38.61
2023-09-17T15:55:01.984Z,38.64
2023-09-17T15:57:35.569Z,38.89
2023-09-17T16:00:03.899Z,39.55
2023-09-17T16:02:39.710Z,39.89
2023-09-17T16:05:07.931Z,40.92
2023-09-17T16:07:40.555Z,41.38
2023-09-17T16:10:09.520Z,42.67
2023-09-17T16:12:37.569Z,42.60
2023-09-17T16:15:05.700Z,42.89
2023-09-17T16:17:34.001Z,43.56
2023-09-17T16:20:01.789Z,44.23
2023-09-17T16:22:30.193Z,46.35
2023-09-17T16:24:59.492Z,46.30
2023-09-17T16:27:36.454Z,46.80
2023-09-17T16:30:09.450Z,46.02
2023-09-17T16:32:56.642Z,45.42
2023-09-17T16:35:41.917Z,45.39
2023-09-17T16:38:29.548Z,47.00
2023-09-17T16:41:29.758Z,45.82
2023-09-17T16:44:36.481Z,47.54
2023-09-17T16:47:15.748Z,47.97
2023-09-17T16:49:51.167Z,48.38
2023-09-17T16:52:32.600Z,49.18
2023-09-17T16:55:05.144Z,49.71
2023-09-17T16:57:46.810Z,49.11
2023-09-17T17:00:24.040Z,49.24
2023-09-17T17:03:17.522Z,49.73
2023-09-17T17:22:57.590Z,50.36
2023-09-17T17:32:15.572Z,51.83
2023-09-17T17:38:07.685Z,52.62
2023-09-17T17:41:09.639Z,53.12
2023-09-17T17:44:02.635Z,53.46
2023-09-17T17:52:24.530Z,53.59
2023-09-17T17:55:08.720Z,54.39
2023-09-17T17:57:57.492Z,55.08
2023-09-17T18:00:32.535Z,56.30
2023-09-17T18:03:26.553Z,57.48
2023-09-17T18:06:10.511Z,56.75
2023-09-17T18:09:03.469Z,60.14
2023-09-17T18:11:43.540Z,59.04
2023-09-17T18:14:25.815Z,64.13
2023-09-17T18:17:00.711Z,65.47
2023-09-17T18:19:33.572Z,66.05
2023-09-17T18:22:07.378Z,67.13
2023-09-17T18:24:49.528Z,66.85
2023-09-17T18:27:28.424Z,65.24
2023-09-17T18:32:55.120Z,64.89
2023-09-17T18:35:34.556Z,64.67
2023-09-17T18:38:06.990Z,64.37
2023-09-17T18:40:37.473Z,64.13
2023-09-17T18:43:18.393Z,65.11
2023-09-17T18:46:11.460Z,64.41
2023-09-17T18:48:43.574Z,63.64
2023-09-17T18:51:12.835Z,66.32
2023-09-17T18:53:47.049Z,63.63
2023-09-17T18:56:19.615Z,61.72
2023-09-17T18:58:56.530Z,61.02
2023-09-17T19:01:43.647Z,62.28
2023-09-17T19:04:19.480Z,65.50
2023-09-17T19:06:52.689Z,67.79
2023-09-17T19:09:26.572Z,64.66
2023-09-17T19:12:00.495Z,61.97
2023-09-17T19:14:52.618Z,67.74
2023-09-17T19:17:38.579Z,69.10
2023-09-17T19:20:08.841Z,68.04
2023-09-17T19:22:47.550Z,69.23
2023-09-17T19:25:26.475Z,69.50
2023-09-17T19:28:10.565Z,69.21
2023-09-17T19:30:44.810Z,65.06
2023-09-17T19:33:32.544Z,63.45
2023-09-17T19:36:01.976Z,63.07
2023-09-17T19:38:44.515Z,62.12
2023-09-17T19:41:21.527Z,63.11
2023-09-17T19:43:54.583Z,63.21
2023-09-17T19:46:35.644Z,63.37
2023-09-17T19:55:52.220Z,63.87
2023-09-17T19:58:29.650Z,63.79
2023-09-17T20:01:21.597Z,63.88
2023-09-17T20:04:03.805Z,65.27
2023-09-17T20:06:56.046Z,64.20
2023-09-17T20:09:36.144Z,62.78
2023-09-17T20:12:13.616Z,64.10
2023-09-17T20:14:42.099Z,62.74
2023-09-17T20:17:14.453Z,61.76
2023-09-17T20:19:51.838Z,62.96
2023-09-17T20:22:35.434Z,65.16
2023-09-17T20:25:03.073Z,67.57
2023-09-17T20:27:40.420Z,68.42
2023-09-17T20:30:17.569Z,64.10
2023-09-17T20:32:52.757Z,64.12
2023-09-17T20:35:20.462Z,63.61
2023-09-17T20:38:12.454Z,63.27
2023-09-17T20:40:44.772Z,66.49
2023-09-17T20:43:31.474Z,63.71
2023-09-17T20:45:59.458Z,63.84
2023-09-17T20:48:31.564Z,63.48
2023-09-17T20:51:09.461Z,65.67
2023-09-17T20:53:50.700Z,67.67
2023-09-17T20:56:19.790Z,68.42
2023-09-17T20:58:57.378Z,70.65
2023-09-17T21:01:29.449Z,71.06
2023-09-17T21:03:57.620Z,71.25
2023-09-17T21:06:25.478Z,71.74
2023-09-17T21:08:54.983Z,68.94
2023-09-17T21:11:24.174Z,65.63
2023-09-17T21:14:02.440Z,65.22
2023-09-17T21:16:36.406Z,65.39
2023-09-17T21:19:18.517Z,65.33
2023-09-17T21:21:50.967Z,64.55
2023-09-17T21:24:25.791Z,64.75
2023-09-17T21:26:53.751Z,66.73
2023-09-17T21:29:30.495Z,67.26
2023-09-17T21:32:11.472Z,64.65
2023-09-17T21:34:43.732Z,66.27
2023-09-17T21:37:15.393Z,68.99
2023-09-17T21:39:49.638Z,73.78
2023-09-17T21:42:17.122Z,70.73
2023-09-17T21:44:44.987Z,67.73
2023-09-17T21:47:12.410Z,66.39
2023-09-17T21:49:40.514Z,66.17
2023-09-17T21:52:07.885Z,65.37
2023-09-17T21:54:35.766Z,66.34
2023-09-17T21:57:18.036Z,65.56
2023-09-17T21:59:48.721Z,64.96
2023-09-17T22:02:16.678Z,67.41
2023-09-17T22:04:44.677Z,65.71
2023-09-17T22:07:12.133Z,67.83
2023-09-17T22:09:40.622Z,74.12
2023-09-17T22:12:09.776Z,75.53
2023-09-17T22:14:38.118Z,77.31
2023-09-17T22:17:05.780Z,77.49
2023-09-17T22:19:33.560Z,78.17
2023-09-17T22:22:01.084Z,78.60
2023-09-17T22:24:28.909Z,79.03
2023-09-17T22:26:56.370Z,77.41
2023-09-17T22:29:28.967Z,76.52
2023-09-17T22:31:56.981Z,71.92
2023-09-17T22:34:24.529Z,70.48
2023-09-17T22:36:52.382Z,68.97
2023-09-17T22:39:19.897Z,68.51
2023-09-17T22:41:47.583Z,67.63
2023-09-17T22:44:23.359Z,67.55
2023-09-17T22:47:00.289Z,67.21
2023-09-17T22:49:27.812Z,67.16
2023-09-17T22:51:55.924Z,65.50
2023-09-17T22:54:23.475Z,65.94
2023-09-17T22:56:51.192Z,66.68
2023-09-17T22:59:18.630Z,67.02
2023-09-17T23:01:46.549Z,67.62
2023-09-17T23:04:15.208Z,66.97
2023-09-17T23:06:43.103Z,66.26
2023-09-17T23:09:10.581Z,66.33
2023-09-17T23:11:38.266Z,66.31
2023-09-17T23:14:05.679Z,66.05
2023-09-17T23:16:33.567Z,66.59
2023-09-17T23:19:00.895Z,67.09
2023-09-17T23:21:30.015Z,66.24
2023-09-17T23:23:57.546Z,67.22
2023-09-17T23:26:25.453Z,67.46
2023-09-17T23:28:53.099Z,70.22
2023-09-17T23:31:21.026Z,71.70
2023-09-17T23:33:48.414Z,73.29
2023-09-17T23:36:16.057Z,70.60
2023-09-17T23:38:44.847Z,70.25
2023-09-17T23:41:12.843Z,71.58
2023-09-17T23:43:40.375Z,70.30
2023-09-17T23:46:08.218Z,68.40
2023-09-17T23:48:35.578Z,67.50
2023-09-17T23:51:03.386Z,67.02
2023-09-17T23:53:34.179Z,67.23
2023-09-17T23:56:03.732Z,68.21
2023-09-17T23:58:31.266Z,69.69
